Airfield :
LOGIN :

Register | Disclaimer

   EN    FR    IT 

 










Legend :    VFR   Marginal VFR   IFR   Intensive IFR   Very Intensive IFR
Visi :
Ceiling :
>= 8 km
>= 3000ft
5 to 8 km
1000 to 3000 ft
1500m to 5 km
500 to 1000 ft
800 to 1500m
200 to 500 ft
< 800m
< 200 ft
Symbols :   Thunderstorms  Fog  Heavy snow  Heavy precipitations  Wind > 20 kt
SIGMETs :     Misc.  Thunderstorms  Icing  Turbulence  Mountain Waves  Volcanic Ashes







- Airport Elevation : 200 ft


EBBL - Klein Brogel AB

CURRENT METAR :
  • 191655Z VRB01KT 9999 SCT040 SCT230 14/10 Q1020 BLU

EXPIRED METARs :
  • 191625Z VRB01KT 9999 FEW035 SCT230 14/11 Q1019 BLU
  • 191555Z VRB02KT 9999 FEW035 SCT230 16/09 Q1019 BLU
  • 191525Z 01003KT 9999 SCT033 SCT230 16/09 Q1019 BLU
  • 191503Z 01004KT 9999 SCT033 SCT230 17/09 Q1019 BLU FCST CANCEL
  • 191455Z 35004KT 9999 SCT033 SCT230 17/09 Q1019 BLU BLU
  • 191425Z 35004KT 9999 SCT031 SCT230 17/09 Q1019 BLU BLU

TAF TAF EBBL
Valid from the 19 at 13:00 until the 19 at 22:00 UTC


191143Z 1913/1922 34006KT 8000 SCT020 SCT220
BECMG 1913/1915 35008KT 9999 SCT025 SCT220
No reported NOTAMs for that airfield.



MET'MAP, your aeronautical weather chart ! - Copyright ORBIFLY December 2007 - Disclaimer

ORBIFLY MET'MAP TEAM :

Programming & Development : Alexandra Zaïnal
Concept & Development : Baudouin d'Aumeries
Co-Development & Prog : Marc-Olivier Méhu
Technical & hardware support : Manuel Goepfert

Contact : metmap@orbifly.com




SOURCES & CREDITS :

   NOAA